sensor_id;sensor_type;location;lat;lon;timestamp;temperature;humidity
9881;DHT22;4979;51.014;6.678;2023-05-10T00:00:08;14.10;99.90
9881;DHT22;4979;51.014;6.678;2023-05-10T00:02:34;14.10;99.90
9881;DHT22;4979;51.014;6.678;2023-05-10T00:05:00;14.00;99.90
9881;DHT22;4979;51.014;6.678;2023-05-10T00:07:26;14.00;99.90
9881;DHT22;4979;51.014;6.678;2023-05-10T00:09:52;14.00;99.90
9881;DHT22;4979;51.014;6.678;2023-05-10T00:12:17;14.00;99.90
9881;DHT22;4979;51.014;6.678;2023-05-10T00:14:43;14.00;99.90
9881;DHT22;4979;51.014;6.678;2023-05-10T00:17:08;14.00;99.90
9881;DHT22;4979;51.014;6.678;2023-05-10T00:22:00;14.10;99.90
9881;DHT22;4979;51.014;6.678;2023-05-10T00:24:25;14.10;99.90
9881;DHT22;4979;51.014;6.678;2023-05-10T00:26:51;14.00;99.90
9881;DHT22;4979;51.014;6.678;2023-05-10T00:29:17;14.00;99.90
9881;DHT22;4979;51.014;6.678;2023-05-10T00:31:42;14.10;99.90
9881;DHT22;4979;51.014;6.678;2023-05-10T00:34:08;14.00;99.90
9881;DHT22;4979;51.014;6.678;2023-05-10T00:36:33;14.00;99.90
9881;DHT22;4979;51.014;6.678;2023-05-10T00:38:59;14.00;99.90
9881;DHT22;4979;51.014;6.678;2023-05-10T00:41:24;14.00;99.90
9881;DHT22;4979;51.014;6.678;2023-05-10T00:43:50;14.00;99.90
9881;DHT22;4979;51.014;6.678;2023-05-10T00:46:16;14.00;99.90
9881;DHT22;4979;51.014;6.678;2023-05-10T00:48:42;14.00;99.90
9881;DHT22;4979;51.014;6.678;2023-05-10T00:51:08;14.00;99.90
9881;DHT22;4979;51.014;6.678;2023-05-10T00:53:34;14.00;99.90
9881;DHT22;4979;51.014;6.678;2023-05-10T00:56:00;14.00;99.90
9881;DHT22;4979;51.014;6.678;2023-05-10T00:58:27;14.00;99.90
9881;DHT22;4979;51.014;6.678;2023-05-10T01:00:55;14.00;99.90
9881;DHT22;4979;51.014;6.678;2023-05-10T01:03:22;14.10;99.90
9881;DHT22;4979;51.014;6.678;2023-05-10T01:05:47;14.00;99.90
9881;DHT22;4979;51.014;6.678;2023-05-10T01:08:13;14.00;99.90
9881;DHT22;4979;51.014;6.678;2023-05-10T01:10:39;14.10;99.90
9881;DHT22;4979;51.014;6.678;2023-05-10T01:13:05;14.00;99.90
9881;DHT22;4979;51.014;6.678;2023-05-10T01:15:31;14.00;99.90
9881;DHT22;4979;51.014;6.678;2023-05-10T01:17:57;13.90;99.90
9881;DHT22;4979;51.014;6.678;2023-05-10T01:20:23;14.00;99.90
9881;DHT22;4979;51.014;6.678;2023-05-10T01:23:16;13.90;99.90
9881;DHT22;4979;51.014;6.678;2023-05-10T01:32:12;14.00;99.90
9881;DHT22;4979;51.014;6.678;2023-05-10T01:37:21;14.10;99.90
9881;DHT22;4979;51.014;6.678;2023-05-10T01:39:57;14.10;99.90
9881;DHT22;4979;51.014;6.678;2023-05-10T01:42:39;14.10;99.90
9881;DHT22;4979;51.014;6.678;2023-05-10T01:45:07;14.10;99.90
9881;DHT22;4979;51.014;6.678;2023-05-10T01:47:43;14.10;99.90
9881;DHT22;4979;51.014;6.678;2023-05-10T01:50:15;14.10;99.90
9881;DHT22;4979;51.014;6.678;2023-05-10T01:52:53;14.10;99.90
9881;DHT22;4979;51.014;6.678;2023-05-10T01:55:21;14.20;99.90
9881;DHT22;4979;51.014;6.678;2023-05-10T01:57:52;14.20;99.90
9881;DHT22;4979;51.014;6.678;2023-05-10T02:00:22;14.20;99.90
9881;DHT22;4979;51.014;6.678;2023-05-10T02:02:49;14.20;99.90
9881;DHT22;4979;51.014;6.678;2023-05-10T02:05:17;14.30;99.90
9881;DHT22;4979;51.014;6.678;2023-05-10T02:10:10;14.30;99.90
9881;DHT22;4979;51.014;6.678;2023-05-10T02:12:39;14.30;99.90
9881;DHT22;4979;51.014;6.678;2023-05-10T02:15:07;14.30;99.90
9881;DHT22;4979;51.014;6.678;2023-05-10T02:17:34;14.40;99.90
9881;DHT22;4979;51.014;6.678;2023-05-10T02:20:02;14.30;99.90
9881;DHT22;4979;51.014;6.678;2023-05-10T02:22:29;14.20;99.90
9881;DHT22;4979;51.014;6.678;2023-05-10T02:24:59;14.20;99.90
9881;DHT22;4979;51.014;6.678;2023-05-10T02:27:27;14.20;99.90
9881;DHT22;4979;51.014;6.678;2023-05-10T02:29:53;14.20;99.90
9881;DHT22;4979;51.014;6.678;2023-05-10T02:32:21;14.40;99.90
9881;DHT22;4979;51.014;6.678;2023-05-10T02:34:47;14.30;99.90
9881;DHT22;4979;51.014;6.678;2023-05-10T02:37:19;14.40;99.90
9881;DHT22;4979;51.014;6.678;2023-05-10T02:39:53;14.40;99.90
9881;DHT22;4979;51.014;6.678;2023-05-10T02:42:25;14.40;99.90
9881;DHT22;4979;51.014;6.678;2023-05-10T02:44:53;14.40;99.90
9881;DHT22;4979;51.014;6.678;2023-05-10T02:47:20;14.40;99.90
9881;DHT22;4979;51.014;6.678;2023-05-10T02:49:46;14.40;99.90
9881;DHT22;4979;51.014;6.678;2023-05-10T02:52:18;14.40;99.90
9881;DHT22;4979;51.014;6.678;2023-05-10T02:54:49;14.40;99.90
9881;DHT22;4979;51.014;6.678;2023-05-10T02:57:16;14.40;99.90
9881;DHT22;4979;51.014;6.678;2023-05-10T02:59:45;14.30;99.90
9881;DHT22;4979;51.014;6.678;2023-05-10T03:02:12;14.30;99.90
9881;DHT22;4979;51.014;6.678;2023-05-10T03:04:38;14.20;99.90
9881;DHT22;4979;51.014;6.678;2023-05-10T03:07:04;14.20;99.90
9881;DHT22;4979;51.014;6.678;2023-05-10T03:09:30;14.10;99.90
9881;DHT22;4979;51.014;6.678;2023-05-10T03:12:14;14.20;99.90
9881;DHT22;4979;51.014;6.678;2023-05-10T03:17:54;14.10;99.90
9881;DHT22;4979;51.014;6.678;2023-05-10T03:20:26;14.10;99.90
9881;DHT22;4979;51.014;6.678;2023-05-10T03:23:07;14.10;99.90
9881;DHT22;4979;51.014;6.678;2023-05-10T03:25:35;14.00;99.90
9881;DHT22;4979;51.014;6.678;2023-05-10T03:28:01;14.00;99.90
9881;DHT22;4979;51.014;6.678;2023-05-10T03:30:29;14.00;99.90
9881;DHT22;4979;51.014;6.678;2023-05-10T03:32:55;14.00;99.90
9881;DHT22;4979;51.014;6.678;2023-05-10T03:35:20;14.00;99.90
9881;DHT22;4979;51.014;6.678;2023-05-10T03:37:46;13.90;99.90
9881;DHT22;4979;51.014;6.678;2023-05-10T03:40:13;14.00;99.90
9881;DHT22;4979;51.014;6.678;2023-05-10T03:42:39;14.00;99.90
9881;DHT22;4979;51.014;6.678;2023-05-10T03:45:05;13.90;99.90
9881;DHT22;4979;51.014;6.678;2023-05-10T03:47:30;13.90;99.90
9881;DHT22;4979;51.014;6.678;2023-05-10T03:49:56;13.90;99.90
9881;DHT22;4979;51.014;6.678;2023-05-10T03:52:22;13.80;99.90
9881;DHT22;4979;51.014;6.678;2023-05-10T03:54:47;13.80;99.90
9881;DHT22;4979;51.014;6.678;2023-05-10T03:57:13;13.90;99.90
9881;DHT22;4979;51.014;6.678;2023-05-10T03:59:38;13.80;99.90
9881;DHT22;4979;51.014;6.678;2023-05-10T04:02:04;13.80;99.90
9881;DHT22;4979;51.014;6.678;2023-05-10T04:04:30;13.80;99.90
9881;DHT22;4979;51.014;6.678;2023-05-10T04:06:56;13.80;99.90
9881;DHT22;4979;51.014;6.678;2023-05-10T04:09:22;13.90;99.90
9881;DHT22;4979;51.014;6.678;2023-05-10T04:11:47;13.90;99.90
9881;DHT22;4979;51.014;6.678;2023-05-10T04:16:39;13.80;99.90
9881;DHT22;4979;51.014;6.678;2023-05-10T04:19:04;13.90;99.90
9881;DHT22;4979;51.014;6.678;2023-05-10T04:21:30;13.90;99.90
9881;DHT22;4979;51.014;6.678;2023-05-10T04:23:55;13.90;99.90
9881;DHT22;4979;51.014;6.678;2023-05-10T04:26:21;13.80;99.90
9881;DHT22;4979;51.014;6.678;2023-05-10T04:28:47;13.80;99.90
9881;DHT22;4979;51.014;6.678;2023-05-10T04:33:38;13.80;99.90
9881;DHT22;4979;51.014;6.678;2023-05-10T04:36:04;13.90;99.90
9881;DHT22;4979;51.014;6.678;2023-05-10T04:38:30;13.90;99.90
9881;DHT22;4979;51.014;6.678;2023-05-10T04:41:09;13.90;99.90
9881;DHT22;4979;51.014;6.678;2023-05-10T04:43:36;13.90;99.90
9881;DHT22;4979;51.014;6.678;2023-05-10T04:46:02;13.90;99.90
9881;DHT22;4979;51.014;6.678;2023-05-10T04:48:29;14.00;99.90
9881;DHT22;4979;51.014;6.678;2023-05-10T04:50:54;13.90;99.90
9881;DHT22;4979;51.014;6.678;2023-05-10T04:55:46;13.90;99.90
9881;DHT22;4979;51.014;6.678;2023-05-10T05:00:38;13.90;99.90
9881;DHT22;4979;51.014;6.678;2023-05-10T05:03:04;13.90;99.90
9881;DHT22;4979;51.014;6.678;2023-05-10T05:05:30;13.90;99.90
9881;DHT22;4979;51.014;6.678;2023-05-10T05:07:56;13.90;99.90
9881;DHT22;4979;51.014;6.678;2023-05-10T05:10:21;13.90;99.90
9881;DHT22;4979;51.014;6.678;2023-05-10T05:12:47;13.80;99.90
9881;DHT22;4979;51.014;6.678;2023-05-10T05:15:13;13.80;99.90
9881;DHT22;4979;51.014;6.678;2023-05-10T05:17:38;13.80;99.90
9881;DHT22;4979;51.014;6.678;2023-05-10T05:20:04;13.90;99.90
9881;DHT22;4979;51.014;6.678;2023-05-10T05:22:30;13.90;99.90
9881;DHT22;4979;51.014;6.678;2023-05-10T05:24:57;13.90;99.90
9881;DHT22;4979;51.014;6.678;2023-05-10T05:27:23;13.90;99.90
9881;DHT22;4979;51.014;6.678;2023-05-10T05:29:56;13.90;99.90
9881;DHT22;4979;51.014;6.678;2023-05-10T05:32:22;14.00;99.90
9881;DHT22;4979;51.014;6.678;2023-05-10T05:34:47;14.00;99.90
9881;DHT22;4979;51.014;6.678;2023-05-10T05:37:18;14.00;99.90
9881;DHT22;4979;51.014;6.678;2023-05-10T05:39:45;14.00;99.90
9881;DHT22;4979;51.014;6.678;2023-05-10T05:42:11;13.90;99.90
9881;DHT22;4979;51.014;6.678;2023-05-10T05:44:37;13.90;99.90
9881;DHT22;4979;51.014;6.678;2023-05-10T05:47:03;13.90;99.90
9881;DHT22;4979;51.014;6.678;2023-05-10T05:49:29;13.90;99.90
9881;DHT22;4979;51.014;6.678;2023-05-10T05:51:59;13.90;99.90
9881;DHT22;4979;51.014;6.678;2023-05-10T05:54:24;14.00;99.90
9881;DHT22;4979;51.014;6.678;2023-05-10T05:59:16;13.80;99.90
9881;DHT22;4979;51.014;6.678;2023-05-10T06:04:08;13.90;99.90
9881;DHT22;4979;51.014;6.678;2023-05-10T06:06:33;13.90;99.90
9881;DHT22;4979;51.014;6.678;2023-05-10T06:08:59;13.90;99.90
9881;DHT22;4979;51.014;6.678;2023-05-10T06:11:25;13.80;99.90
9881;DHT22;4979;51.014;6.678;2023-05-10T06:13:51;13.90;99.90
9881;DHT22;4979;51.014;6.678;2023-05-10T06:16:16;13.80;99.90
9881;DHT22;4979;51.014;6.678;2023-05-10T06:18:43;13.90;99.90
9881;DHT22;4979;51.014;6.678;2023-05-10T06:23:34;13.90;99.90
9881;DHT22;4979;51.014;6.678;2023-05-10T06:26:01;14.00;99.90
9881;DHT22;4979;51.014;6.678;2023-05-10T06:28:26;14.10;99.90
9881;DHT22;4979;51.014;6.678;2023-05-10T06:30:52;14.10;99.90
9881;DHT22;4979;51.014;6.678;2023-05-10T06:33:17;14.00;99.90
9881;DHT22;4979;51.014;6.678;2023-05-10T06:35:43;13.90;99.90
9881;DHT22;4979;51.014;6.678;2023-05-10T06:40:34;14.00;99.90
9881;DHT22;4979;51.014;6.678;2023-05-10T06:43:01;14.10;99.90
9881;DHT22;4979;51.014;6.678;2023-05-10T06:45:26;14.10;99.90
9881;DHT22;4979;51.014;6.678;2023-05-10T06:47:52;14.20;99.90
9881;DHT22;4979;51.014;6.678;2023-05-10T06:50:18;14.10;99.90
9881;DHT22;4979;51.014;6.678;2023-05-10T06:52:43;14.20;99.90
9881;DHT22;4979;51.014;6.678;2023-05-10T06:55:09;14.30;99.90
9881;DHT22;4979;51.014;6.678;2023-05-10T06:57:35;14.30;99.90
9881;DHT22;4979;51.014;6.678;2023-05-10T07:00:01;14.30;99.90
9881;DHT22;4979;51.014;6.678;2023-05-10T07:02:29;14.30;99.90
9881;DHT22;4979;51.014;6.678;2023-05-10T07:04:54;14.40;99.90
9881;DHT22;4979;51.014;6.678;2023-05-10T07:07:20;14.40;99.90
9881;DHT22;4979;51.014;6.678;2023-05-10T07:09:46;14.30;99.90
9881;DHT22;4979;51.014;6.678;2023-05-10T07:12:11;14.30;99.90
9881;DHT22;4979;51.014;6.678;2023-05-10T07:14:38;14.20;99.90
9881;DHT22;4979;51.014;6.678;2023-05-10T07:19:29;14.30;99.90
9881;DHT22;4979;51.014;6.678;2023-05-10T07:21:55;14.30;99.90
9881;DHT22;4979;51.014;6.678;2023-05-10T07:29:12;14.40;99.90
9881;DHT22;4979;51.014;6.678;2023-05-10T07:31:38;14.40;99.90
9881;DHT22;4979;51.014;6.678;2023-05-10T07:34:03;14.50;99.90
9881;DHT22;4979;51.014;6.678;2023-05-10T07:36:29;14.60;99.90
9881;DHT22;4979;51.014;6.678;2023-05-10T07:38:56;14.70;99.90
9881;DHT22;4979;51.014;6.678;2023-05-10T07:41:22;14.60;99.90
9881;DHT22;4979;51.014;6.678;2023-05-10T07:43:48;14.70;99.90
9881;DHT22;4979;51.014;6.678;2023-05-10T07:46:13;14.70;99.90
9881;DHT22;4979;51.014;6.678;2023-05-10T07:48:39;14.80;99.90
9881;DHT22;4979;51.014;6.678;2023-05-10T07:51:05;14.80;99.90
9881;DHT22;4979;51.014;6.678;2023-05-10T07:53:32;14.80;99.90
9881;DHT22;4979;51.014;6.678;2023-05-10T07:55:58;14.90;99.90
9881;DHT22;4979;51.014;6.678;2023-05-10T07:58:24;14.80;99.90
9881;DHT22;4979;51.014;6.678;2023-05-10T08:00:50;14.80;99.90
9881;DHT22;4979;51.014;6.678;2023-05-10T08:05:42;15.10;99.90
9881;DHT22;4979;51.014;6.678;2023-05-10T08:08:08;15.10;99.90
9881;DHT22;4979;51.014;6.678;2023-05-10T08:12:59;15.50;99.90
9881;DHT22;4979;51.014;6.678;2023-05-10T08:15:25;15.50;99.90
9881;DHT22;4979;51.014;6.678;2023-05-10T08:17:53;15.30;99.90
9881;DHT22;4979;51.014;6.678;2023-05-10T08:20:19;15.30;99.90
9881;DHT22;4979;51.014;6.678;2023-05-10T08:22:46;15.40;99.90
9881;DHT22;4979;51.014;6.678;2023-05-10T08:27:37;15.80;99.90
9881;DHT22;4979;51.014;6.678;2023-05-10T08:30:03;15.80;99.90
9881;DHT22;4979;51.014;6.678;2023-05-10T08:34:55;15.70;99.90
9881;DHT22;4979;51.014;6.678;2023-05-10T08:37:22;15.50;99.90
9881;DHT22;4979;51.014;6.678;2023-05-10T08:39:48;15.40;99.90
9881;DHT22;4979;51.014;6.678;2023-05-10T08:42:16;15.50;99.90
9881;DHT22;4979;51.014;6.678;2023-05-10T08:44:45;15.40;99.90
9881;DHT22;4979;51.014;6.678;2023-05-10T08:47:15;15.40;99.90
9881;DHT22;4979;51.014;6.678;2023-05-10T08:52:08;15.30;99.90
9881;DHT22;4979;51.014;6.678;2023-05-10T08:54:36;15.40;99.90
9881;DHT22;4979;51.014;6.678;2023-05-10T08:57:02;15.20;99.90
9881;DHT22;4979;51.014;6.678;2023-05-10T08:59:28;15.10;99.90
9881;DHT22;4979;51.014;6.678;2023-05-10T09:01:58;15.10;99.90
9881;DHT22;4979;51.014;6.678;2023-05-10T09:04:24;15.20;99.90
9881;DHT22;4979;51.014;6.678;2023-05-10T09:06:50;15.20;99.90
9881;DHT22;4979;51.014;6.678;2023-05-10T09:09:17;15.30;99.90
9881;DHT22;4979;51.014;6.678;2023-05-10T09:11:43;15.40;99.90
9881;DHT22;4979;51.014;6.678;2023-05-10T09:14:09;15.50;99.90
9881;DHT22;4979;51.014;6.678;2023-05-10T09:16:35;15.60;99.90
9881;DHT22;4979;51.014;6.678;2023-05-10T09:19:00;15.70;99.90
9881;DHT22;4979;51.014;6.678;2023-05-10T09:21:26;15.90;99.90
9881;DHT22;4979;51.014;6.678;2023-05-10T09:23:52;15.80;99.90
9881;DHT22;4979;51.014;6.678;2023-05-10T09:26:22;16.00;99.90
9881;DHT22;4979;51.014;6.678;2023-05-10T09:28:56;15.90;99.90
9881;DHT22;4979;51.014;6.678;2023-05-10T09:33:49;16.00;99.90
9881;DHT22;4979;51.014;6.678;2023-05-10T09:36:16;16.20;99.90
9881;DHT22;4979;51.014;6.678;2023-05-10T09:38:51;16.30;99.90
9881;DHT22;4979;51.014;6.678;2023-05-10T09:41:24;16.40;99.90
9881;DHT22;4979;51.014;6.678;2023-05-10T09:43:55;16.50;99.90
9881;DHT22;4979;51.014;6.678;2023-05-10T09:48:47;16.40;99.90
9881;DHT22;4979;51.014;6.678;2023-05-10T09:51:24;16.50;99.90
9881;DHT22;4979;51.014;6.678;2023-05-10T09:54:09;16.50;99.90
9881;DHT22;4979;51.014;6.678;2023-05-10T09:56:35;16.70;99.90
9881;DHT22;4979;51.014;6.678;2023-05-10T09:59:02;16.80;99.90
9881;DHT22;4979;51.014;6.678;2023-05-10T10:03:54;16.60;99.90
9881;DHT22;4979;51.014;6.678;2023-05-10T10:06:20;16.70;99.90
9881;DHT22;4979;51.014;6.678;2023-05-10T10:08:46;16.60;99.90
9881;DHT22;4979;51.014;6.678;2023-05-10T10:11:11;16.70;99.90
9881;DHT22;4979;51.014;6.678;2023-05-10T10:13:37;16.70;99.90
9881;DHT22;4979;51.014;6.678;2023-05-10T10:16:03;17.00;99.90
9881;DHT22;4979;51.014;6.678;2023-05-10T10:18:30;17.30;99.90
9881;DHT22;4979;51.014;6.678;2023-05-10T10:20:56;17.00;99.90
9881;DHT22;4979;51.014;6.678;2023-05-10T10:23:21;17.00;99.90
9881;DHT22;4979;51.014;6.678;2023-05-10T10:25:48;17.20;99.90
9881;DHT22;4979;51.014;6.678;2023-05-10T10:28:24;17.50;99.90
9881;DHT22;4979;51.014;6.678;2023-05-10T10:30:52;17.10;99.90
9881;DHT22;4979;51.014;6.678;2023-05-10T10:33:55;17.20;99.90
9881;DHT22;4979;51.014;6.678;2023-05-10T10:36:22;17.60;99.90
9881;DHT22;4979;51.014;6.678;2023-05-10T10:41:29;17.40;99.90
9881;DHT22;4979;51.014;6.678;2023-05-10T10:52:32;17.10;99.90
9881;DHT22;4979;51.014;6.678;2023-05-10T10:54:59;17.00;99.90
9881;DHT22;4979;51.014;6.678;2023-05-10T10:57:27;17.10;99.90
9881;DHT22;4979;51.014;6.678;2023-05-10T11:02:44;17.10;99.90
9881;DHT22;4979;51.014;6.678;2023-05-10T11:07:59;17.20;99.90
9881;DHT22;4979;51.014;6.678;2023-05-10T11:10:26;17.40;99.90
9881;DHT22;4979;51.014;6.678;2023-05-10T11:12:59;17.40;99.90
9881;DHT22;4979;51.014;6.678;2023-05-10T11:15:33;17.40;99.90
9881;DHT22;4979;51.014;6.678;2023-05-10T11:18:01;17.20;99.90
9881;DHT22;4979;51.014;6.678;2023-05-10T11:23:14;17.00;99.90
9881;DHT22;4979;51.014;6.678;2023-05-10T11:30:40;17.10;99.90
9881;DHT22;4979;51.014;6.678;2023-05-10T11:33:07;17.40;99.90
9881;DHT22;4979;51.014;6.678;2023-05-10T11:35:40;17.40;99.90
9881;DHT22;4979;51.014;6.678;2023-05-10T11:38:12;17.80;99.90
9881;DHT22;4979;51.014;6.678;2023-05-10T11:40:39;17.80;99.90
9881;DHT22;4979;51.014;6.678;2023-05-10T11:43:05;17.70;99.90
9881;DHT22;4979;51.014;6.678;2023-05-10T11:45:34;17.70;99.90
9881;DHT22;4979;51.014;6.678;2023-05-10T11:48:01;18.00;99.90
9881;DHT22;4979;51.014;6.678;2023-05-10T11:50:28;18.10;99.90
9881;DHT22;4979;51.014;6.678;2023-05-10T11:52:55;18.40;99.90
9881;DHT22;4979;51.014;6.678;2023-05-10T11:55:22;18.70;99.90
9881;DHT22;4979;51.014;6.678;2023-05-10T11:58:00;18.80;99.90
9881;DHT22;4979;51.014;6.678;2023-05-10T12:02:52;19.10;99.90
9881;DHT22;4979;51.014;6.678;2023-05-10T12:05:18;19.30;99.90
9881;DHT22;4979;51.014;6.678;2023-05-10T12:10:12;21.30;99.90
9881;DHT22;4979;51.014;6.678;2023-05-10T12:12:43;19.60;99.90
9881;DHT22;4979;51.014;6.678;2023-05-10T12:17:44;19.60;99.90
9881;DHT22;4979;51.014;6.678;2023-05-10T12:20:23;19.30;99.90
9881;DHT22;4979;51.014;6.678;2023-05-10T12:22:51;19.40;99.90
9881;DHT22;4979;51.014;6.678;2023-05-10T12:25:18;19.20;99.90
9881;DHT22;4979;51.014;6.678;2023-05-10T12:27:52;18.90;99.90
9881;DHT22;4979;51.014;6.678;2023-05-10T12:30:28;18.80;99.90
9881;DHT22;4979;51.014;6.678;2023-05-10T12:33:17;18.60;99.90
9881;DHT22;4979;51.014;6.678;2023-05-10T12:35:48;18.50;99.90
9881;DHT22;4979;51.014;6.678;2023-05-10T12:38:29;18.60;99.90
9881;DHT22;4979;51.014;6.678;2023-05-10T12:40:57;18.30;99.90
9881;DHT22;4979;51.014;6.678;2023-05-10T12:43:23;18.60;99.90
9881;DHT22;4979;51.014;6.678;2023-05-10T12:45:48;18.60;99.90
9881;DHT22;4979;51.014;6.678;2023-05-10T12:48:15;18.70;99.90
9881;DHT22;4979;51.014;6.678;2023-05-10T12:50:40;18.90;99.90
9881;DHT22;4979;51.014;6.678;2023-05-10T12:53:06;18.70;99.90
9881;DHT22;4979;51.014;6.678;2023-05-10T12:57:57;19.00;99.90
9881;DHT22;4979;51.014;6.678;2023-05-10T13:00:23;18.90;99.90
9881;DHT22;4979;51.014;6.678;2023-05-10T13:02:48;18.90;99.90
9881;DHT22;4979;51.014;6.678;2023-05-10T13:05:14;18.90;99.90
9881;DHT22;4979;51.014;6.678;2023-05-10T13:07:40;18.90;99.90
9881;DHT22;4979;51.014;6.678;2023-05-10T13:10:06;18.90;99.90
9881;DHT22;4979;51.014;6.678;2023-05-10T13:12:32;18.80;99.90
9881;DHT22;4979;51.014;6.678;2023-05-10T13:14:58;19.00;99.90
9881;DHT22;4979;51.014;6.678;2023-05-10T13:17:25;19.30;99.90
9881;DHT22;4979;51.014;6.678;2023-05-10T13:19:51;19.20;99.90
9881;DHT22;4979;51.014;6.678;2023-05-10T13:22:16;19.70;99.90
9881;DHT22;4979;51.014;6.678;2023-05-10T13:24:42;20.20;99.90
9881;DHT22;4979;51.014;6.678;2023-05-10T13:27:07;20.00;99.90
9881;DHT22;4979;51.014;6.678;2023-05-10T13:29:33;20.00;99.90
9881;DHT22;4979;51.014;6.678;2023-05-10T13:31:58;20.00;99.90
9881;DHT22;4979;51.014;6.678;2023-05-10T13:34:24;19.90;99.90
9881;DHT22;4979;51.014;6.678;2023-05-10T13:36:50;19.90;99.90
9881;DHT22;4979;51.014;6.678;2023-05-10T13:39:16;19.80;99.90
9881;DHT22;4979;51.014;6.678;2023-05-10T13:41:42;19.70;99.90
9881;DHT22;4979;51.014;6.678;2023-05-10T13:44:07;19.70;99.90
9881;DHT22;4979;51.014;6.678;2023-05-10T13:46:33;19.40;99.90
9881;DHT22;4979;51.014;6.678;2023-05-10T13:48:58;19.70;99.90
9881;DHT22;4979;51.014;6.678;2023-05-10T13:51:24;19.80;99.90
9881;DHT22;4979;51.014;6.678;2023-05-10T13:53:50;19.90;99.90
9881;DHT22;4979;51.014;6.678;2023-05-10T13:56:15;19.90;99.90
9881;DHT22;4979;51.014;6.678;2023-05-10T13:58:41;20.10;99.90
9881;DHT22;4979;51.014;6.678;2023-05-10T14:01:06;19.60;99.90
9881;DHT22;4979;51.014;6.678;2023-05-10T14:03:33;19.60;99.90
9881;DHT22;4979;51.014;6.678;2023-05-10T14:05:58;19.70;99.90
9881;DHT22;4979;51.014;6.678;2023-05-10T14:08:24;20.20;99.90
9881;DHT22;4979;51.014;6.678;2023-05-10T14:13:17;19.80;99.90
9881;DHT22;4979;51.014;6.678;2023-05-10T14:15:42;19.60;99.90
9881;DHT22;4979;51.014;6.678;2023-05-10T14:20:34;19.60;99.90
9881;DHT22;4979;51.014;6.678;2023-05-10T14:23:00;19.30;99.90
9881;DHT22;4979;51.014;6.678;2023-05-10T14:25:25;19.40;99.90
9881;DHT22;4979;51.014;6.678;2023-05-10T14:27:51;19.60;99.90
9881;DHT22;4979;51.014;6.678;2023-05-10T14:30:20;19.60;99.90
9881;DHT22;4979;51.014;6.678;2023-05-10T14:32:45;19.80;99.90
9881;DHT22;4979;51.014;6.678;2023-05-10T14:35:11;19.70;99.90
9881;DHT22;4979;51.014;6.678;2023-05-10T14:37:38;19.50;99.90
9881;DHT22;4979;51.014;6.678;2023-05-10T14:40:05;19.50;99.90
9881;DHT22;4979;51.014;6.678;2023-05-10T14:42:31;19.70;99.90
9881;DHT22;4979;51.014;6.678;2023-05-10T14:44:57;19.70;99.90
9881;DHT22;4979;51.014;6.678;2023-05-10T14:47:22;19.60;99.90
9881;DHT22;4979;51.014;6.678;2023-05-10T14:49:48;19.60;99.90
9881;DHT22;4979;51.014;6.678;2023-05-10T14:52:13;19.60;99.90
9881;DHT22;4979;51.014;6.678;2023-05-10T14:54:39;19.50;99.90
9881;DHT22;4979;51.014;6.678;2023-05-10T14:57:06;19.40;99.90
9881;DHT22;4979;51.014;6.678;2023-05-10T14:59:32;19.30;99.90
9881;DHT22;4979;51.014;6.678;2023-05-10T15:01:58;19.30;99.90
9881;DHT22;4979;51.014;6.678;2023-05-10T15:04:24;19.30;99.90
9881;DHT22;4979;51.014;6.678;2023-05-10T15:06:49;19.20;99.90
9881;DHT22;4979;51.014;6.678;2023-05-10T15:09:15;19.20;99.90
9881;DHT22;4979;51.014;6.678;2023-05-10T15:11:41;19.40;99.90
9881;DHT22;4979;51.014;6.678;2023-05-10T15:16:33;19.20;99.90
9881;DHT22;4979;51.014;6.678;2023-05-10T15:18:59;19.30;99.90
9881;DHT22;4979;51.014;6.678;2023-05-10T15:21:24;19.20;99.90
9881;DHT22;4979;51.014;6.678;2023-05-10T15:23:50;19.20;99.90
9881;DHT22;4979;51.014;6.678;2023-05-10T15:26:16;19.30;99.90
9881;DHT22;4979;51.014;6.678;2023-05-10T15:28:41;19.20;99.90
9881;DHT22;4979;51.014;6.678;2023-05-10T15:31:07;19.10;99.90
9881;DHT22;4979;51.014;6.678;2023-05-10T15:33:33;19.00;99.90
9881;DHT22;4979;51.014;6.678;2023-05-10T15:35:58;18.90;99.90
9881;DHT22;4979;51.014;6.678;2023-05-10T15:40:49;19.10;99.90
9881;DHT22;4979;51.014;6.678;2023-05-10T15:43:15;19.00;99.90
9881;DHT22;4979;51.014;6.678;2023-05-10T15:45:41;18.90;99.90
9881;DHT22;4979;51.014;6.678;2023-05-10T15:48:06;18.80;99.90
9881;DHT22;4979;51.014;6.678;2023-05-10T15:50:32;18.60;99.90
9881;DHT22;4979;51.014;6.678;2023-05-10T15:52:58;18.70;99.90
9881;DHT22;4979;51.014;6.678;2023-05-10T15:55:23;18.60;99.90
9881;DHT22;4979;51.014;6.678;2023-05-10T15:57:49;18.50;99.90
9881;DHT22;4979;51.014;6.678;2023-05-10T16:00:16;18.60;99.90
9881;DHT22;4979;51.014;6.678;2023-05-10T16:02:42;18.80;99.90
9881;DHT22;4979;51.014;6.678;2023-05-10T16:05:08;18.80;99.90
9881;DHT22;4979;51.014;6.678;2023-05-10T16:07:34;18.80;99.90
9881;DHT22;4979;51.014;6.678;2023-05-10T16:09:59;18.70;99.90
9881;DHT22;4979;51.014;6.678;2023-05-10T16:12:29;18.50;99.90
9881;DHT22;4979;51.014;6.678;2023-05-10T16:14:55;18.60;99.90
9881;DHT22;4979;51.014;6.678;2023-05-10T16:19:47;18.40;99.90
9881;DHT22;4979;51.014;6.678;2023-05-10T16:22:13;18.40;99.90
9881;DHT22;4979;51.014;6.678;2023-05-10T16:27:04;18.20;99.90
9881;DHT22;4979;51.014;6.678;2023-05-10T16:29:30;18.20;99.90
9881;DHT22;4979;51.014;6.678;2023-05-10T16:31:56;18.20;99.90
9881;DHT22;4979;51.014;6.678;2023-05-10T16:34:21;18.10;99.90
9881;DHT22;4979;51.014;6.678;2023-05-10T16:36:48;18.10;99.90
9881;DHT22;4979;51.014;6.678;2023-05-10T16:39:14;18.10;99.90
9881;DHT22;4979;51.014;6.678;2023-05-10T16:41:40;18.00;99.90
9881;DHT22;4979;51.014;6.678;2023-05-10T16:46:32;18.00;99.90
9881;DHT22;4979;51.014;6.678;2023-05-10T16:48:58;17.70;99.90
9881;DHT22;4979;51.014;6.678;2023-05-10T16:51:25;17.60;99.90
9881;DHT22;4979;51.014;6.678;2023-05-10T16:53:52;17.50;99.90
9881;DHT22;4979;51.014;6.678;2023-05-10T16:56:17;17.40;99.90
9881;DHT22;4979;51.014;6.678;2023-05-10T16:58:45;17.50;99.90
9881;DHT22;4979;51.014;6.678;2023-05-10T17:01:14;17.60;99.90
9881;DHT22;4979;51.014;6.678;2023-05-10T17:03:40;17.70;99.90
9881;DHT22;4979;51.014;6.678;2023-05-10T17:06:05;17.70;99.90
9881;DHT22;4979;51.014;6.678;2023-05-10T17:08:31;17.70;99.90
9881;DHT22;4979;51.014;6.678;2023-05-10T17:11:00;17.70;99.90
9881;DHT22;4979;51.014;6.678;2023-05-10T17:18:19;17.50;99.90
9881;DHT22;4979;51.014;6.678;2023-05-10T17:20:44;17.50;99.90
9881;DHT22;4979;51.014;6.678;2023-05-10T17:23:10;17.30;99.90
9881;DHT22;4979;51.014;6.678;2023-05-10T17:25:36;17.20;99.90
9881;DHT22;4979;51.014;6.678;2023-05-10T17:28:02;17.20;99.90
9881;DHT22;4979;51.014;6.678;2023-05-10T17:30:28;17.10;99.90
9881;DHT22;4979;51.014;6.678;2023-05-10T17:35:22;17.10;99.90
9881;DHT22;4979;51.014;6.678;2023-05-10T17:37:48;17.00;99.90
9881;DHT22;4979;51.014;6.678;2023-05-10T17:40:14;17.10;99.90
9881;DHT22;4979;51.014;6.678;2023-05-10T17:42:39;17.20;99.90
9881;DHT22;4979;51.014;6.678;2023-05-10T17:45:05;17.20;99.90
9881;DHT22;4979;51.014;6.678;2023-05-10T17:49:57;17.10;99.90
9881;DHT22;4979;51.014;6.678;2023-05-10T17:52:22;16.90;99.90
9881;DHT22;4979;51.014;6.678;2023-05-10T17:54:48;16.60;99.90
9881;DHT22;4979;51.014;6.678;2023-05-10T17:57:13;16.60;99.90
9881;DHT22;4979;51.014;6.678;2023-05-10T17:59:39;16.60;99.90
9881;DHT22;4979;51.014;6.678;2023-05-10T18:02:05;16.50;99.90
9881;DHT22;4979;51.014;6.678;2023-05-10T18:04:30;16.50;99.90